Time;durP1;ratioP1;P1;durP2;ratioP2;P2;SDS_P1;SDS_P2;PMS_P1;PMS_P2;Temp;Humidity;BMP_temperature;BMP_pressure;BME280_temperature;BME280_humidity;BME280_pressure;Samples;Min_cycle;Max_cycle;Signal;HPM_P1;HPM_P2
2022/01/29 00:02:19;;;;;;;;;19.25;17.75;;;;;8.58;63.68;103072.88;5053003;28;45288;-41
2022/01/29 00:04:46;;;;;;;;;22.25;21.00;;;;;8.58;64.04;103070.25;5037771;28;45363;-41
2022/01/29 00:07:12;;;;;;;;;22.50;21.75;;;;;8.58;63.95;103068.50;5040638;28;45380;-41
2022/01/29 00:09:38;;;;;;;;;29.75;27.00;;;;;8.61;63.85;103070.34;5051644;28;45460;-41
2022/01/29 00:12:04;;;;;;;;;19.75;18.50;;;;;8.60;64.03;103065.94;5046440;28;45374;-41
2022/01/29 00:14:30;;;;;;;;;23.25;23.25;;;;;8.61;64.00;103067.72;5039740;28;45288;-41
2022/01/29 00:16:55;;;;;;;;;26.75;24.00;;;;;8.62;63.70;103065.13;5052911;28;45220;-41
2022/01/29 00:19:20;;;;;;;;;38.00;33.00;;;;;8.62;63.80;103062.50;5047697;28;45192;-42
2022/01/29 00:21:45;;;;;;;;;25.50;23.00;;;;;8.62;63.82;103051.16;5045964;28;45498;-41
2022/01/29 00:24:11;;;;;;;;;29.50;28.25;;;;;8.67;64.09;103049.56;5033307;28;45318;-41
2022/01/29 00:26:36;;;;;;;;;30.50;23.25;;;;;8.62;63.93;103033.69;5038966;28;45268;-41
2022/01/29 00:29:09;;;;;;;;;25.25;24.50;;;;;8.66;63.75;103036.41;5055520;28;45556;-42
2022/01/29 00:31:34;;;;;;;;;23.75;22.50;;;;;8.69;63.79;103034.78;5044843;28;45239;-41
2022/01/29 00:33:59;;;;;;;;;28.00;24.25;;;;;8.70;63.72;103028.66;5054141;28;45284;-41
2022/01/29 00:36:25;;;;;;;;;21.75;18.00;;;;;8.69;63.98;103028.63;5056251;28;45205;-41
2022/01/29 00:38:50;;;;;;;;;25.50;22.50;;;;;8.71;63.79;103019.09;5045538;28;45214;-41
2022/01/29 00:41:15;;;;;;;;;22.25;18.75;;;;;8.72;63.82;103013.00;5044493;28;45450;-42
2022/01/29 00:43:41;;;;;;;;;29.50;25.25;;;;;8.68;63.90;103009.41;5054114;28;45219;-41
2022/01/29 00:46:06;;;;;;;;;24.00;24.00;;;;;8.68;63.85;103000.63;5054923;28;45262;-42
2022/01/29 00:48:32;;;;;;;;;19.75;13.75;;;;;8.66;63.99;102997.09;5051472;28;45319;-42
2022/01/29 00:51:00;;;;;;;;;25.75;23.25;;;;;8.65;64.04;102997.94;5049251;28;45928;-41
2022/01/29 00:53:25;;;;;;;;;24.75;23.25;;;;;8.64;64.04;102998.78;5053369;28;45314;-43
2022/01/29 00:55:51;;;;;;;;;21.50;18.25;;;;;8.61;63.85;102995.19;5055975;28;45392;-42
2022/01/29 00:58:16;;;;;;;;;29.25;24.50;;;;;8.59;63.73;102996.00;5052054;28;45319;-42
2022/01/29 01:00:41;;;;;;;;;24.00;20.50;;;;;8.57;63.92;102998.59;5049025;28;45973;-42
2022/01/29 01:03:07;;;;;;;;;21.25;19.00;;;;;8.55;64.18;102991.50;5052930;28;45291;-41
2022/01/29 01:05:32;;;;;;;;;21.00;19.50;;;;;8.54;64.00;102990.66;5041029;28;45452;-43
2022/01/29 01:07:58;;;;;;;;;23.50;19.00;;;;;8.53;63.99;102981.00;5048661;28;45501;-42
2022/01/29 01:10:23;;;;;;;;;22.00;20.50;;;;;8.55;63.86;102981.03;5048798;28;46002;-42
2022/01/29 01:12:48;;;;;;;;;21.75;20.25;;;;;8.53;63.72;102980.09;5048173;28;45320;-41
2022/01/29 01:15:14;;;;;;;;;25.00;20.75;;;;;8.51;64.18;102977.44;5043474;28;45245;-42
2022/01/29 01:17:39;;;;;;;;;23.50;20.00;;;;;8.51;64.18;102981.78;5053574;28;45252;-42
2022/01/29 01:20:07;;;;;;;;;23.50;21.75;;;;;8.50;64.04;102985.25;5054216;28;47409;-42
2022/01/29 01:22:32;;;;;;;;;27.50;22.75;;;;;8.48;64.09;102977.34;5050030;28;45319;-42
2022/01/29 01:24:57;;;;;;;;;20.00;17.25;;;;;8.49;63.90;102992.25;5048664;28;45262;-41
2022/01/29 01:27:23;;;;;;;;;22.50;20.25;;;;;8.48;64.02;102989.53;5052884;28;45254;-41
2022/01/29 01:29:48;;;;;;;;;19.50;17.25;;;;;8.45;63.99;102985.97;5055191;28;46091;-41
2022/01/29 01:32:14;;;;;;;;;25.75;20.25;;;;;8.45;64.03;102987.69;5050449;28;45356;-41
2022/01/29 01:34:45;;;;;;;;;25.75;20.75;;;;;8.43;64.22;102985.03;5048454;28;45271;-43
2022/01/29 01:37:17;;;;;;;;;27.00;20.75;;;;;8.42;64.21;102992.84;5052797;28;45245;-42
2022/01/29 01:39:43;;;;;;;;;22.00;18.50;;;;;8.41;64.42;102984.06;5044626;28;46260;-42
2022/01/29 01:42:08;;;;;;;;;21.00;19.25;;;;;8.41;64.00;102989.31;5051926;28;45545;-43
2022/01/29 01:44:41;;;;;;;;;19.75;19.00;;;;;8.43;64.11;102990.28;5048599;28;45377;-42
2022/01/29 01:47:07;;;;;;;;;18.50;17.00;;;;;8.40;64.16;102982.31;5051034;28;45504;-41
2022/01/29 01:49:32;;;;;;;;;21.25;18.00;;;;;8.41;64.20;102989.31;5054940;28;45978;-42
2022/01/29 01:51:58;;;;;;;;;18.75;16.75;;;;;8.39;64.31;102982.25;5052706;28;45347;-41
2022/01/29 01:54:23;;;;;;;;;20.75;17.00;;;;;8.38;64.10;102986.63;5048222;28;45266;-42
2022/01/29 01:56:49;;;;;;;;;23.25;15.00;;;;;8.38;64.13;102976.13;5050656;28;45526;-42
2022/01/29 01:59:14;;;;;;;;;19.50;15.75;;;;;8.35;64.47;102975.16;5053569;28;46160;-42
2022/01/29 02:01:40;;;;;;;;;18.25;17.25;;;;;8.31;64.54;102974.16;5053089;28;45246;-41
2022/01/29 02:04:05;;;;;;;;;19.50;16.25;;;;;8.30;64.35;102972.38;5041597;28;46121;-42
2022/01/29 02:06:30;;;;;;;;;23.25;18.25;;;;;8.27;64.90;102967.94;5041265;28;45398;-43
2022/01/29 02:08:59;;;;;;;;;22.00;19.00;;;;;8.25;64.78;102966.13;5054616;28;46139;-41
2022/01/29 02:11:26;;;;;;;;;20.25;18.75;;;;;8.25;64.82;102963.50;5048553;28;45375;-41
2022/01/29 02:13:54;;;;;;;;;20.25;19.50;;;;;8.24;64.61;102961.75;5044291;28;45311;-42
2022/01/29 02:16:19;;;;;;;;;14.00;12.00;;;;;8.24;64.69;102953.88;5051407;28;45418;-42
2022/01/29 02:18:45;;;;;;;;;21.50;18.00;;;;;8.21;65.00;102964.25;5054369;28;45223;-42
2022/01/29 02:21:11;;;;;;;;;17.25;15.00;;;;;8.19;65.09;102948.50;5051193;28;45468;-42
2022/01/29 02:23:37;;;;;;;;;20.50;15.75;;;;;8.17;65.14;102947.53;5046583;28;45268;-41
2022/01/29 02:26:02;;;;;;;;;22.25;18.00;;;;;8.14;65.04;102940.47;5050864;28;45459;-42
2022/01/29 02:28:27;;;;;;;;;19.50;17.75;;;;;8.14;64.99;102944.84;5054422;28;46177;-41
2022/01/29 02:31:03;;;;;;;;;21.50;19.50;;;;;8.10;64.98;102936.00;5051399;28;45422;-42
2022/01/29 02:33:33;;;;;;;;;20.75;19.50;;;;;8.11;64.78;102947.34;5047845;28;45335;-42
2022/01/29 02:35:59;;;;;;;;;23.25;18.00;;;;;8.12;65.15;102934.31;5048416;28;45528;-41
2022/01/29 02:38:25;;;;;;;;;17.75;17.50;;;;;8.11;65.04;102924.69;5054020;28;46035;-42
2022/01/29 02:40:56;;;;;;;;;19.50;17.00;;;;;8.09;65.04;102934.22;5040684;28;45414;-42
2022/01/29 02:43:26;;;;;;;;;19.50;18.00;;;;;8.07;65.20;102920.19;5027645;28;45377;-41
2022/01/29 02:45:53;;;;;;;;;20.25;17.75;;;;;8.08;65.25;102916.72;5052214;28;45470;-42
2022/01/29 02:48:20;;;;;;;;;19.75;18.00;;;;;8.07;65.10;102916.69;5048508;28;46082;-42
2022/01/29 02:50:47;;;;;;;;;19.75;18.50;;;;;8.07;64.82;102903.59;5046007;28;45413;-42
2022/01/29 02:53:13;;;;;;;;;20.25;18.50;;;;;8.07;65.08;102912.31;5052689;28;45358;-41
2022/01/29 02:55:39;;;;;;;;;20.75;19.00;;;;;8.04;65.31;102900.88;5052618;28;45574;-42
2022/01/29 02:58:05;;;;;;;;;19.25;17.50;;;;;8.01;65.06;102896.41;5047825;28;47996;-42
2022/01/29 03:00:31;;;;;;;;;22.50;20.75;;;;;8.00;65.30;102888.53;5047166;28;45336;-41
2022/01/29 03:02:56;;;;;;;;;22.25;19.50;;;;;7.97;65.08;102884.06;5051953;28;45358;-42
2022/01/29 03:05:21;;;;;;;;;23.50;22.00;;;;;7.94;65.27;102884.88;5038659;28;45220;-42
2022/01/29 03:07:47;;;;;;;;;21.75;20.75;;;;;7.96;65.36;102895.38;5046344;28;45879;-42
2022/01/29 03:10:12;;;;;;;;;21.75;19.00;;;;;7.94;65.32;102889.22;5046388;28;45197;-41
2022/01/29 03:12:40;;;;;;;;;21.00;16.50;;;;;7.94;65.39;102884.00;5047838;28;45162;-42
2022/01/29 03:15:06;;;;;;;;;18.25;16.25;;;;;7.94;65.27;102882.25;5053477;28;46247;-42
2022/01/29 03:17:32;;;;;;;;;12.50;12.50;;;;;7.92;65.07;102868.25;5046868;28;47427;-43
2022/01/29 03:19:57;;;;;;;;;19.25;17.50;;;;;7.93;65.67;102877.84;5047055;28;45381;-42
2022/01/29 03:22:23;;;;;;;;;18.25;16.00;;;;;7.97;65.53;102878.84;5053588;28;45385;-41
2022/01/29 03:24:48;;;;;;;;;25.75;21.25;;;;;7.93;65.63;102871.75;5053699;28;45376;-42
2022/01/29 03:27:13;;;;;;;;;18.25;17.75;;;;;7.94;65.42;102871.78;5027104;28;45333;-43
2022/01/29 03:29:39;;;;;;;;;16.25;15.75;;;;;7.97;65.61;102866.66;5053781;28;45287;-42
2022/01/29 03:32:04;;;;;;;;;18.00;13.75;;;;;7.98;65.80;102864.91;5047134;28;45233;-43
2022/01/29 03:34:30;;;;;;;;;25.75;20.50;;;;;7.97;65.73;102863.13;5046827;28;45226;-42
2022/01/29 03:36:56;;;;;;;;;22.00;19.75;;;;;7.97;65.78;102868.38;5052881;28;46091;-42
2022/01/29 03:39:24;;;;;;;;;16.75;14.25;;;;;7.99;65.78;102866.69;5043365;28;45375;-42
2022/01/29 03:41:49;;;;;;;;;22.75;19.50;;;;;8.01;65.84;102872.84;5047469;28;45328;-42
2022/01/29 03:44:15;;;;;;;;;20.25;17.00;;;;;8.03;65.71;102878.16;5046504;28;45538;-42
2022/01/29 03:46:40;;;;;;;;;19.75;16.75;;;;;8.04;65.83;102878.19;5052506;28;46238;-42
2022/01/29 03:49:06;;;;;;;;;22.25;20.75;;;;;8.06;65.75;102879.16;5051967;28;45322;-42
2022/01/29 03:51:31;;;;;;;;;20.25;17.50;;;;;8.06;65.67;102884.38;5047116;28;45470;-42
2022/01/29 03:53:57;;;;;;;;;19.75;15.75;;;;;8.07;65.78;102880.91;5046367;28;45462;-42
2022/01/29 03:56:22;;;;;;;;;22.75;18.50;;;;;8.09;65.99;102881.84;5052601;28;45369;-42
2022/01/29 03:58:48;;;;;;;;;16.50;16.50;;;;;8.09;65.99;102883.59;5053290;28;45435;-42
2022/01/29 04:01:13;;;;;;;;;20.25;19.25;;;;;8.11;65.99;102882.78;5047261;28;45488;-42
2022/01/29 04:03:38;;;;;;;;;23.50;17.50;;;;;8.13;66.11;102880.22;5044433;28;45326;-42
2022/01/29 04:06:04;;;;;;;;;27.00;23.25;;;;;8.13;65.99;102872.34;5037957;28;46056;-42
2022/01/29 04:08:31;;;;;;;;;22.75;19.25;;;;;8.15;65.89;102883.78;5039692;28;45255;-42
2022/01/29 04:10:56;;;;;;;;;16.25;14.50;;;;;8.15;65.92;102878.53;5053068;28;45569;-42
2022/01/29 04:13:24;;;;;;;;;29.50;27.00;;;;;8.18;66.06;102882.97;5038351;28;45220;-43
2022/01/29 04:15:50;;;;;;;;;24.00;22.00;;;;;8.18;66.10;102878.63;5052880;28;46287;-43
2022/01/29 04:18:15;;;;;;;;;21.25;21.00;;;;;8.19;66.00;102869.91;5051922;28;45347;-43
2022/01/29 04:20:40;;;;;;;;;26.75;23.00;;;;;8.21;66.06;102869.94;5046352;28;45443;-42
2022/01/29 04:23:06;;;;;;;;;22.50;20.25;;;;;8.18;66.29;102877.75;5047034;28;45310;-43
2022/01/29 04:25:32;;;;;;;;;25.25;21.75;;;;;8.19;66.26;102874.25;5052516;28;45287;-43
2022/01/29 04:27:58;;;;;;;;;21.50;18.50;;;;;8.19;65.92;102861.16;5051942;28;45348;-41
2022/01/29 04:30:28;;;;;;;;;26.00;19.75;;;;;8.19;66.17;102864.69;5046155;28;45335;-41
2022/01/29 04:33:23;;;;;;;;;25.25;22.00;;;;;8.21;66.22;102868.22;5046289;28;45296;-42
2022/01/29 04:35:49;;;;;;;;;26.00;21.00;;;;;8.23;65.98;102858.69;5039190;28;46293;-42
2022/01/29 04:38:15;;;;;;;;;28.00;24.75;;;;;8.23;66.17;102868.28;5051188;28;45354;-41
2022/01/29 04:40:41;;;;;;;;;17.00;12.25;;;;;8.26;66.26;102874.50;5039146;28;45366;-42
2022/01/29 04:43:06;;;;;;;;;23.75;21.50;;;;;8.26;66.11;102866.66;5052301;28;45470;-42
2022/01/29 04:45:32;;;;;;;;;25.50;21.25;;;;;8.24;66.42;102859.59;5050343;28;45325;-41
2022/01/29 04:47:58;;;;;;;;;27.25;22.25;;;;;8.25;65.91;102859.63;5041574;28;45343;-42
2022/01/29 04:50:23;;;;;;;;;25.50;23.00;;;;;8.27;66.28;102859.66;5048786;28;45304;-42
2022/01/29 04:52:49;;;;;;;;;22.25;20.00;;;;;8.28;66.18;102862.31;5044326;28;45310;-41
2022/01/29 04:55:14;;;;;;;;;21.75;20.00;;;;;8.30;66.38;102859.72;5048363;28;45237;-41
2022/01/29 04:57:41;;;;;;;;;19.75;18.75;;;;;8.33;66.24;102856.31;5052381;28;45243;-41
2022/01/29 05:00:10;;;;;;;;;22.50;21.00;;;;;8.32;66.37;102855.44;5050268;28;45435;-43
2022/01/29 05:02:36;;;;;;;;;30.75;28.50;;;;;8.36;66.20;102846.81;5045354;28;45500;-44
2022/01/29 05:05:03;;;;;;;;;27.25;23.75;;;;;8.36;66.25;102859.03;5041214;28;45430;-41
2022/01/29 05:07:28;;;;;;;;;27.75;24.50;;;;;8.38;66.29;102854.75;5037352;28;45300;-42
2022/01/29 05:09:53;;;;;;;;;25.75;24.00;;;;;8.38;66.06;102844.25;5041516;28;45424;-43
2022/01/29 05:12:24;;;;;;;;;27.50;24.50;;;;;8.38;66.36;102845.13;5049307;28;45472;-43
2022/01/29 05:28:03;;;;;;;;;25.50;22.75;;;;;8.38;66.56;102850.38;5055328;28;45242;-42
2022/01/29 05:30:29;;;;;;;;;25.00;20.00;;;;;8.38;66.58;102854.75;5048939;28;45236;-42
2022/01/29 05:32:54;;;;;;;;;23.25;22.75;;;;;8.39;66.55;102846.00;5048579;28;45346;-41
2022/01/29 05:35:20;;;;;;;;;27.00;24.00;;;;;8.39;66.33;102852.16;5055156;28;46001;-41
2022/01/29 05:37:49;;;;;;;;;21.75;19.50;;;;;8.39;66.65;102848.63;5055323;28;45363;-41
2022/01/29 05:40:15;;;;;;;;;27.25;22.50;;;;;8.39;66.63;102851.25;5041554;28;45177;-41
2022/01/29 05:42:40;;;;;;;;;28.50;24.50;;;;;8.39;66.53;102854.78;5053689;28;45191;-41
2022/01/29 05:45:06;;;;;;;;;22.75;19.00;;;;;8.41;66.38;102855.69;5049593;28;46469;-40
2022/01/29 05:47:31;;;;;;;;;20.25;16.50;;;;;8.39;66.75;102841.69;5046143;28;45240;-41
2022/01/29 05:49:56;;;;;;;;;30.50;24.75;;;;;8.41;66.57;102842.59;5050008;28;45423;-41
2022/01/29 05:52:22;;;;;;;;;24.25;24.00;;;;;8.42;66.82;102843.50;5047975;28;45236;-41
2022/01/29 05:54:48;;;;;;;;;26.50;21.75;;;;;8.44;66.67;102841.81;5053734;28;45251;-41
2022/01/29 05:57:14;;;;;;;;;29.75;25.25;;;;;8.45;66.65;102839.25;5055012;28;45159;-41
2022/01/29 05:59:39;;;;;;;;;23.75;18.75;;;;;8.45;66.66;102838.31;5050059;28;45312;-41
2022/01/29 06:02:04;;;;;;;;;23.75;20.75;;;;;8.48;66.62;102841.09;5046556;28;45406;-42
2022/01/29 06:04:30;;;;;;;;;25.75;21.75;;;;;8.49;66.61;102839.34;5039814;28;46023;-41
2022/01/29 06:06:55;;;;;;;;;33.00;27.75;;;;;8.52;66.63;102842.94;5040074;28;45820;-41
2022/01/29 06:09:20;;;;;;;;;27.75;22.50;;;;;8.51;66.92;102835.03;5047031;28;45318;-42
2022/01/29 06:11:46;;;;;;;;;26.75;22.75;;;;;8.54;66.87;102840.34;5047951;28;45268;-41
2022/01/29 06:14:12;;;;;;;;;26.75;22.00;;;;;8.54;67.02;102827.25;5045593;28;46045;-43
2022/01/29 06:16:38;;;;;;;;;26.75;23.50;;;;;8.58;66.69;102840.50;5049039;28;45501;-42
2022/01/29 06:19:03;;;;;;;;;27.50;21.25;;;;;8.61;66.88;102842.31;5054665;28;45336;-42
2022/01/29 06:21:28;;;;;;;;;25.50;23.50;;;;;8.62;66.75;102841.47;5052446;28;45553;-43
2022/01/29 06:23:54;;;;;;;;;27.00;22.75;;;;;8.65;66.75;102846.78;5047495;28;46009;-44
2022/01/29 06:26:19;;;;;;;;;24.00;20.75;;;;;8.66;66.61;102848.56;5047599;28;45409;-43
2022/01/29 06:28:44;;;;;;;;;28.00;24.25;;;;;8.67;66.99;102839.84;5047019;28;45363;-44
2022/01/29 06:31:10;;;;;;;;;21.25;20.00;;;;;8.68;66.69;102840.72;5048800;28;45564;-42
2022/01/29 06:33:36;;;;;;;;;30.75;24.75;;;;;8.71;66.89;102846.94;5040906;28;46168;-42
2022/01/29 06:36:02;;;;;;;;;24.75;21.75;;;;;8.73;66.78;102846.97;5053679;28;45243;-43
2022/01/29 06:38:27;;;;;;;;;25.25;25.25;;;;;8.77;66.85;102852.34;5044814;28;45425;-42
2022/01/29 06:40:53;;;;;;;;;23.25;21.50;;;;;8.80;66.72;102850.69;5053021;27;45603;-42
2022/01/29 06:43:18;;;;;;;;;22.50;21.50;;;;;8.83;66.72;102841.16;5045169;28;46183;-42
2022/01/29 06:45:46;;;;;;;;;28.00;21.75;;;;;8.85;66.64;102841.19;5048577;28;45270;-42
2022/01/29 06:48:13;;;;;;;;;27.25;24.00;;;;;8.86;66.53;102850.84;5054308;28;45326;-43
2022/01/29 06:50:39;;;;;;;;;28.50;24.75;;;;;8.90;66.84;102850.06;5040800;28;45442;-42
2022/01/29 06:53:05;;;;;;;;;25.25;22.50;;;;;8.90;66.77;102850.06;5047011;28;46199;-42
2022/01/29 06:55:31;;;;;;;;;22.50;21.00;;;;;8.94;66.52;102852.81;5047320;28;45223;-44
2022/01/29 06:57:57;;;;;;;;;26.25;23.75;;;;;8.99;66.39;102842.44;5054047;28;45173;-41
2022/01/29 07:00:22;;;;;;;;;30.25;25.00;;;;;8.99;66.58;102834.56;5052882;28;45239;-43
2022/01/29 07:02:48;;;;;;;;;32.50;25.25;;;;;9.03;66.54;102835.53;5047569;28;45594;-42
2022/01/29 07:05:13;;;;;;;;;23.00;20.25;;;;;9.03;66.74;102831.19;5043185;28;45256;-42
2022/01/29 07:07:39;;;;;;;;;26.00;22.25;;;;;9.04;66.74;102832.06;5040450;28;45208;-43
2022/01/29 07:10:06;;;;;;;;;27.00;21.50;;;;;9.05;66.78;102832.09;5040515;28;45260;-42
2022/01/29 07:12:31;;;;;;;;;27.75;22.25;;;;;9.08;66.81;102828.66;5040271;28;48129;-43
2022/01/29 07:14:57;;;;;;;;;29.50;27.00;;;;;9.09;66.69;102831.34;5040374;28;45285;-42
2022/01/29 07:17:24;;;;;;;;;26.25;22.50;;;;;9.10;66.64;102825.22;5040239;28;45499;-45
2022/01/29 07:19:50;;;;;;;;;24.00;22.25;;;;;9.11;66.67;102829.63;5039996;28;45306;-43
2022/01/29 07:22:16;;;;;;;;;30.50;23.25;;;;;9.10;66.72;102830.47;5039646;28;46965;-45
2022/01/29 07:24:42;;;;;;;;;32.75;27.25;;;;;9.09;66.67;102825.19;5039962;28;45702;-46
2022/01/29 07:27:07;;;;;;;;;24.25;22.50;;;;;9.07;66.99;102825.16;5040335;28;45329;-43
2022/01/29 07:29:33;;;;;;;;;13.25;10.00;;;;;9.05;66.80;102808.50;5040282;28;45498;-44
2022/01/29 07:31:59;;;;;;;;;25.50;23.25;;;;;9.05;66.67;102815.50;5039582;28;46349;-43
2022/01/29 07:34:26;;;;;;;;;32.25;24.50;;;;;9.04;66.85;102811.09;5038787;27;45509;-47
2022/01/29 07:36:53;;;;;;;;;26.50;23.25;;;;;9.04;66.80;102816.34;5039930;28;45405;-42
2022/01/29 07:39:20;;;;;;;;;27.50;24.25;;;;;9.05;66.59;102820.75;5038399;27;45391;-48
2022/01/29 07:41:46;;;;;;;;;26.75;25.25;;;;;9.04;66.86;102822.50;5039737;28;45274;-46
2022/01/29 07:44:12;;;;;;;;;28.50;25.50;;;;;9.01;66.82;102816.28;5038545;28;45295;-44
2022/01/29 07:46:38;;;;;;;;;30.50;25.00;;;;;9.02;66.90;102820.63;5039889;28;45489;-46
2022/01/29 07:49:04;;;;;;;;;27.75;25.50;;;;;9.01;66.97;102817.16;5040000;28;45452;-43
2022/01/29 07:51:29;;;;;;;;;24.00;22.25;;;;;9.02;66.79;102821.53;5039497;28;46228;-41
2022/01/29 07:53:55;;;;;;;;;24.75;22.50;;;;;8.99;66.88;102815.34;5039805;28;45432;-44
2022/01/29 07:56:20;;;;;;;;;30.50;26.00;;;;;9.03;66.60;102818.09;5038459;28;45354;-47
2022/01/29 07:58:47;;;;;;;;;24.00;20.75;;;;;9.02;66.96;102807.53;5039791;28;45403;-46
2022/01/29 08:01:13;;;;;;;;;21.75;18.25;;;;;9.02;67.01;102816.31;5039364;28;46207;-46
2022/01/29 08:03:39;;;;;;;;;24.75;24.25;;;;;9.02;66.98;102808.44;5039383;28;45344;-43
2022/01/29 08:06:04;;;;;;;;;27.50;21.00;;;;;9.06;66.87;102812.03;5039231;28;45445;-44
2022/01/29 08:08:29;;;;;;;;;29.00;22.75;;;;;9.06;67.00;102812.03;5038442;28;45450;-42
2022/01/29 08:10:55;;;;;;;;;29.25;25.25;;;;;9.08;66.83;102813.84;5039350;28;45264;-43
2022/01/29 08:13:20;;;;;;;;;27.00;23.00;;;;;9.09;67.11;102818.25;5039796;28;45276;-42
2022/01/29 08:15:45;;;;;;;;;25.50;25.00;;;;;9.14;66.95;102820.06;5039622;28;45934;-44
2022/01/29 08:18:11;;;;;;;;;29.50;24.50;;;;;9.17;67.07;102825.38;5039635;28;45415;-43
2022/01/29 08:20:36;;;;;;;;;23.25;21.75;;;;;9.17;66.99;102826.28;5038051;28;47237;-44
2022/01/29 08:23:11;;;;;;;;;29.00;23.50;;;;;9.22;66.88;102822.03;5039545;28;45161;-42
2022/01/29 08:25:37;;;;;;;;;25.25;17.75;;;;;9.25;66.91;102821.22;5038350;28;45390;-42
2022/01/29 08:28:03;;;;;;;;;25.00;24.25;;;;;9.25;67.05;102818.59;5038127;28;45263;-44
2022/01/29 08:30:29;;;;;;;;;24.50;22.25;;;;;9.28;66.97;102813.41;5039155;28;46904;-45
2022/01/29 08:32:54;;;;;;;;;20.75;14.25;;;;;9.29;66.83;102809.94;5039378;28;45397;-46
2022/01/29 08:35:20;;;;;;;;;21.50;20.75;;;;;9.30;66.87;102803.84;5038146;28;45436;-43
2022/01/29 08:37:46;;;;;;;;;31.00;25.00;;;;;9.31;67.03;102804.72;5039191;28;45664;-43
2022/01/29 08:40:12;;;;;;;;;21.00;19.75;;;;;9.34;66.84;102816.19;5038856;28;45391;-45
2022/01/29 08:42:38;;;;;;;;;25.75;24.25;;;;;9.36;66.90;102818.88;5039486;28;45371;-44
2022/01/29 08:45:06;;;;;;;;;26.00;24.50;;;;;9.39;67.19;102819.81;5040838;28;45509;-43
2022/01/29 08:47:32;;;;;;;;;23.25;20.75;;;;;9.42;67.00;102819.91;5041578;28;45434;-43
2022/01/29 08:49:57;;;;;;;;;26.00;24.50;;;;;9.44;66.90;102823.44;5042427;28;46990;-45
2022/01/29 08:52:23;;;;;;;;;25.75;24.25;;;;;9.46;67.17;102810.38;5042745;28;45355;-44
2022/01/29 08:54:48;;;;;;;;;24.50;21.25;;;;;9.49;66.93;102805.19;5042643;28;45464;-44
2022/01/29 08:57:13;;;;;;;;;28.75;25.25;;;;;9.50;66.77;102798.22;5041401;28;45409;-44
2022/01/29 08:59:39;;;;;;;;;25.75;23.00;;;;;9.54;66.93;102808.78;5041090;28;45849;-43
2022/01/29 09:02:05;;;;;;;;;24.25;21.25;;;;;9.55;67.02;102810.56;5042549;28;45277;-44
2022/01/29 09:04:30;;;;;;;;;22.00;19.25;;;;;9.58;66.81;102797.53;5042308;28;45252;-44
2022/01/29 09:06:56;;;;;;;;;18.50;15.50;;;;;9.60;66.93;102793.19;5042489;28;45301;-42
2022/01/29 09:09:25;;;;;;;;;20.75;17.00;;;;;9.61;66.66;102796.72;5041968;28;45240;-43
2022/01/29 09:11:53;;;;;;;;;21.75;20.00;;;;;9.66;67.11;102796.78;5042453;28;45428;-43
2022/01/29 09:14:20;;;;;;;;;14.50;14.50;;;;;9.67;67.20;102803.81;5042462;28;45233;-43
2022/01/29 09:16:45;;;;;;;;;14.75;14.00;;;;;9.69;67.19;102803.00;5042369;28;45321;-43
2022/01/29 09:19:12;;;;;;;;;24.25;17.50;;;;;9.71;67.00;102801.31;5042021;28;45432;-44
2022/01/29 09:21:41;;;;;;;;;17.25;16.00;;;;;9.75;66.99;102805.78;5040722;27;45400;-44
2022/01/29 09:24:07;;;;;;;;;9.25;8.00;;;;;9.76;67.24;102799.69;5042256;28;45288;-43
2022/01/29 09:26:32;;;;;;;;;11.25;8.50;;;;;9.77;67.34;102803.16;5042250;28;45289;-43
2022/01/29 09:28:57;;;;;;;;;7.50;7.50;;;;;9.83;67.04;102797.19;5042247;28;46390;-43
2022/01/29 09:31:23;;;;;;;;;7.75;7.75;;;;;9.88;67.30;102799.03;5042162;28;45269;-43
2022/01/29 09:33:48;;;;;;;;;6.75;6.75;;;;;9.87;66.93;102793.75;5042316;28;45228;-45
2022/01/29 09:36:14;;;;;;;;;6.00;6.00;;;;;9.93;67.34;102801.78;5041973;28;45626;-43
2022/01/29 09:38:40;;;;;;;;;7.00;6.75;;;;;9.99;67.41;102798.41;5040740;28;47112;-44
2022/01/29 09:41:05;;;;;;;;;5.00;4.50;;;;;10.00;67.49;102787.94;5041643;28;45299;-44
2022/01/29 09:43:32;;;;;;;;;6.00;6.00;;;;;10.05;67.28;102802.03;5040753;28;45320;-45
2022/01/29 09:45:58;;;;;;;;;8.50;7.00;;;;;10.11;67.48;102779.38;5042209;28;45325;-44
2022/01/29 09:48:27;;;;;;;;;11.75;9.25;;;;;10.17;67.49;102787.38;5041741;28;45331;-45
2022/01/29 09:50:54;;;;;;;;;6.75;6.75;;;;;10.21;67.50;102787.47;5041516;28;45273;-42
2022/01/29 09:53:20;;;;;;;;;8.25;7.50;;;;;10.25;67.22;102791.94;5041878;28;45436;-44
2022/01/29 09:55:48;;;;;;;;;6.00;6.00;;;;;10.28;67.46;102774.47;5041431;28;45310;-42
2022/01/29 09:58:14;;;;;;;;;6.25;6.25;;;;;10.30;67.75;102775.38;5041745;28;45294;-44
2022/01/29 10:00:40;;;;;;;;;6.25;5.25;;;;;10.36;67.70;102792.19;5041478;28;45331;-45
2022/01/29 10:03:11;;;;;;;;;6.25;5.75;;;;;10.43;67.57;102792.28;5041884;28;45422;-43
2022/01/29 10:05:43;;;;;;;;;6.50;5.75;;;;;10.47;67.45;102794.13;5041120;28;45435;-43
2022/01/29 10:08:09;;;;;;;;;8.25;7.75;;;;;10.49;67.66;102803.81;5041410;28;46091;-47
2022/01/29 10:10:39;;;;;;;;;7.75;7.25;;;;;10.54;67.64;102810.06;5041304;28;45346;-44
2022/01/29 10:13:28;;;;;;;;;7.50;7.50;;;;;10.57;67.67;102804.84;5041553;28;45256;-43
2022/01/29 10:16:03;;;;;;;;;9.75;8.25;;;;;10.60;67.67;102801.38;5041137;28;45392;-47
2022/01/29 10:18:30;;;;;;;;;7.50;6.50;;;;;10.61;67.54;102797.91;5041263;28;46005;-43
2022/01/29 10:21:07;;;;;;;;;13.75;10.00;;;;;10.64;67.62;102797.06;5040972;28;45343;-44
2022/01/29 10:23:32;;;;;;;;;7.00;7.00;;;;;10.67;67.76;102799.75;5041255;28;45534;-43
2022/01/29 10:25:58;;;;;;;;;9.50;9.50;;;;;10.70;67.49;102813.84;5040960;28;45325;-45
2022/01/29 10:28:23;;;;;;;;;13.00;8.25;;;;;10.68;67.54;102801.53;5039653;28;47977;-43
2022/01/29 10:30:49;;;;;;;;;9.00;8.00;;;;;10.71;67.59;102809.47;5039826;28;45445;-44
2022/01/29 10:33:24;;;;;;;;;6.75;6.75;;;;;10.70;67.63;102800.72;5041212;28;45318;-44
2022/01/29 10:36:01;;;;;;;;;9.25;9.25;;;;;10.73;67.62;102806.00;5040942;28;45323;-42
2022/01/29 10:38:55;;;;;;;;;8.00;7.25;;;;;10.76;67.46;102812.19;5040792;28;46050;-42
2022/01/29 10:41:31;;;;;;;;;7.00;7.00;;;;;10.77;67.85;102804.31;5039427;28;45244;-42
2022/01/29 10:44:24;;;;;;;;;7.00;7.00;;;;;10.76;67.48;102804.31;5039785;28;45337;-45
2022/01/29 10:46:52;;;;;;;;;8.25;7.25;;;;;10.76;67.66;102788.53;5041088;28;45366;-47
2022/01/29 10:49:22;;;;;;;;;10.25;8.00;;;;;10.78;67.56;102799.94;5039105;28;48086;-45
2022/01/29 10:52:01;;;;;;;;;9.00;7.75;;;;;10.78;67.72;102800.84;5040521;28;45450;-43
2022/01/29 10:54:28;;;;;;;;;8.00;7.00;;;;;10.79;67.84;102800.00;5040647;28;45219;-44
2022/01/29 10:56:58;;;;;;;;;6.50;5.25;;;;;10.79;67.70;102785.94;5040844;28;45335;-41
2022/01/29 10:59:25;;;;;;;;;7.25;6.50;;;;;10.81;67.73;102789.50;5040323;28;46282;-43
2022/01/29 11:01:57;;;;;;;;;7.50;7.25;;;;;10.81;67.66;102800.00;5040643;28;45303;-42
2022/01/29 11:04:25;;;;;;;;;7.00;6.00;;;;;10.85;67.59;102792.19;5040391;28;45255;-45
2022/01/29 11:06:52;;;;;;;;;6.75;6.25;;;;;10.87;67.39;102797.50;5039911;28;45360;-43
2022/01/29 11:09:18;;;;;;;;;5.75;5.75;;;;;10.87;67.54;102790.47;5038707;27;45342;-45
2022/01/29 11:11:46;;;;;;;;;3.50;3.00;;;;;10.87;67.56;102797.50;5039243;28;45895;-46
2022/01/29 11:14:14;;;;;;;;;4.00;4.00;;;;;10.85;67.54;102792.19;5040453;28;45276;-46
2022/01/29 11:16:43;;;;;;;;;5.75;5.75;;;;;10.89;67.47;102793.13;5040470;28;45197;-45
2022/01/29 11:19:08;;;;;;;;;6.25;5.50;;;;;10.87;67.48;102779.06;5038930;28;46000;-45
2022/01/29 11:21:36;;;;;;;;;6.00;5.00;;;;;10.93;67.44;102788.81;5040221;28;45220;-46
2022/01/29 11:24:02;;;;;;;;;7.50;7.50;;;;;10.93;67.57;102799.31;5040226;28;45252;-43
2022/01/29 11:26:30;;;;;;;;;7.00;5.00;;;;;10.95;67.45;102790.59;5039045;28;45413;-43
2022/01/29 11:29:29;;;;;;;;;8.25;6.25;;;;;10.95;67.64;102797.63;5040033;28;46336;-44
2022/01/29 11:32:27;;;;;;;;;8.00;6.25;;;;;10.96;67.60;102799.41;5040220;28;45232;-45